createdAt,value
2022-12-05T00:01:11.352Z,46.28
2022-12-05T00:03:57.688Z,46.35
2022-12-05T00:05:18.722Z,46.78
2022-12-05T00:06:43.546Z,46.83
2022-12-05T00:08:04.359Z,47.50
2022-12-05T00:09:25.144Z,45.30
2022-12-05T00:10:45.767Z,45.00
2022-12-05T00:12:06.733Z,46.87
2022-12-05T00:13:27.354Z,45.75
2022-12-05T00:14:48.175Z,47.80
2022-12-05T00:16:10.286Z,45.88
2022-12-05T00:17:32.014Z,44.50
2022-12-05T00:18:52.969Z,46.20
2022-12-05T00:20:13.589Z,45.50
2022-12-05T00:21:36.732Z,46.17
2022-12-05T00:22:58.605Z,46.53
2022-12-05T00:24:19.250Z,45.72
2022-12-05T00:25:40.433Z,46.00
2022-12-05T00:27:01.166Z,44.58
2022-12-05T00:28:22.080Z,45.03
2022-12-05T00:29:42.697Z,44.17
2022-12-05T00:31:03.984Z,44.67
2022-12-05T00:32:24.778Z,44.47
2022-12-05T00:33:45.651Z,44.95
2022-12-05T00:35:07.007Z,44.35
2022-12-05T00:36:31.540Z,43.65
2022-12-05T00:37:52.133Z,43.00
2022-12-05T00:39:14.214Z,43.63
2022-12-05T00:40:35.521Z,45.08
2022-12-05T00:41:56.399Z,44.20
2022-12-05T00:43:17.133Z,43.67
2022-12-05T00:44:37.961Z,43.58
2022-12-05T00:46:01.665Z,42.67
2022-12-05T00:47:22.494Z,43.13
2022-12-05T00:48:43.564Z,42.53
2022-12-05T00:50:04.652Z,41.90
2022-12-05T00:51:27.546Z,40.60
2022-12-05T00:52:47.934Z,41.97
2022-12-05T00:54:10.271Z,40.58
2022-12-05T00:55:32.233Z,43.63
2022-12-05T00:56:52.558Z,42.17
2022-12-05T00:58:13.103Z,42.72
2022-12-05T00:59:33.664Z,43.13
2022-12-05T01:00:54.444Z,41.75
2022-12-05T01:02:15.168Z,41.05
2022-12-05T01:03:36.092Z,42.03
2022-12-05T01:04:56.750Z,39.92
2022-12-05T01:06:17.464Z,41.40
2022-12-05T01:07:38.319Z,39.03
2022-12-05T01:08:59.180Z,41.38
2022-12-05T01:10:19.970Z,42.75
2022-12-05T01:11:42.165Z,42.55
2022-12-05T01:13:02.501Z,40.97
2022-12-05T01:14:24.815Z,41.63
2022-12-05T01:15:45.468Z,38.60
2022-12-05T01:17:06.308Z,41.97
2022-12-05T01:18:27.334Z,39.90
2022-12-05T01:19:47.691Z,38.88
2022-12-05T01:21:08.679Z,38.37
2022-12-05T01:22:29.338Z,41.25
2022-12-05T01:23:50.208Z,41.00
2022-12-05T01:25:10.976Z,40.63
2022-12-05T01:26:31.624Z,40.63
2022-12-05T01:27:53.752Z,39.78
2022-12-05T01:29:16.388Z,39.63
2022-12-05T01:30:38.438Z,40.58
2022-12-05T01:31:58.955Z,39.80
2022-12-05T01:33:19.583Z,38.80
2022-12-05T01:34:40.267Z,39.83
2022-12-05T01:36:00.912Z,39.08
2022-12-05T01:37:21.391Z,41.30
2022-12-05T01:38:42.758Z,41.47
2022-12-05T01:41:25.934Z,40.80
2022-12-05T01:42:46.717Z,38.65
2022-12-05T01:44:46.798Z,41.00
2022-12-05T01:46:07.519Z,38.13
2022-12-05T01:47:28.622Z,39.88
2022-12-05T01:48:49.315Z,41.80
2022-12-05T01:50:10.267Z,40.35
2022-12-05T01:51:32.602Z,39.67
2022-12-05T01:52:53.080Z,40.13
2022-12-05T01:54:14.308Z,39.63
2022-12-05T01:55:35.827Z,40.72
2022-12-05T01:58:18.154Z,41.40
2022-12-05T01:59:41.784Z,39.13
2022-12-05T02:01:03.658Z,38.67
2022-12-05T02:02:24.429Z,40.22
2022-12-05T02:03:45.544Z,37.85
2022-12-05T02:05:08.109Z,40.55
2022-12-05T02:06:28.949Z,38.85
2022-12-05T02:07:49.867Z,36.95
2022-12-05T02:09:10.326Z,40.00
2022-12-05T02:10:34.128Z,40.92
2022-12-05T02:11:57.067Z,39.28
2022-12-05T02:13:27.860Z,38.80
2022-12-05T02:14:59.504Z,40.90
2022-12-05T02:16:27.155Z,37.88
2022-12-05T02:17:54.322Z,40.05
2022-12-05T02:19:53.089Z,39.72
2022-12-05T02:21:29.112Z,37.85
2022-12-05T02:23:09.558Z,38.40
2022-12-05T02:24:55.803Z,37.20
2022-12-05T02:26:42.134Z,39.92
2022-12-05T02:28:14.875Z,38.55
2022-12-05T02:29:54.986Z,38.95
2022-12-05T02:31:18.865Z,39.55
2022-12-05T02:32:54.180Z,39.45
2022-12-05T02:34:18.383Z,38.97
2022-12-05T02:35:44.895Z,39.30
2022-12-05T02:37:10.621Z,38.75
2022-12-05T02:38:35.950Z,40.28
2022-12-05T02:40:03.379Z,39.30
2022-12-05T02:41:28.029Z,39.20
2022-12-05T02:42:53.150Z,37.50
2022-12-05T02:44:16.003Z,39.25
2022-12-05T02:45:39.345Z,39.10
2022-12-05T02:47:00.669Z,37.80
2022-12-05T02:48:21.426Z,40.20
2022-12-05T02:49:42.861Z,39.90
2022-12-05T02:51:04.270Z,39.17
2022-12-05T02:52:25.316Z,38.97
2022-12-05T02:53:46.306Z,39.33
2022-12-05T02:55:08.274Z,37.40
2022-12-05T02:56:30.527Z,36.63
2022-12-05T02:57:54.704Z,38.97
2022-12-05T02:59:21.526Z,38.38
2022-12-05T03:00:48.806Z,38.20
2022-12-05T03:02:09.530Z,38.15
2022-12-05T03:03:30.872Z,37.40
2022-12-05T03:06:14.555Z,37.65
2022-12-05T03:07:36.913Z,39.65
2022-12-05T03:09:00.963Z,37.13
2022-12-05T03:10:24.446Z,37.72
2022-12-05T03:11:47.998Z,39.35
2022-12-05T03:13:11.567Z,39.13
2022-12-05T03:14:35.198Z,36.88
2022-12-05T03:16:01.462Z,38.95
2022-12-05T03:17:24.194Z,39.50
2022-12-05T03:18:48.201Z,38.47
2022-12-05T03:20:13.746Z,39.63
2022-12-05T03:21:37.003Z,38.47
2022-12-05T03:22:59.427Z,37.28
2022-12-05T03:24:20.182Z,37.10
2022-12-05T03:25:46.888Z,38.30
2022-12-05T03:27:12.695Z,38.28
2022-12-05T03:28:40.164Z,39.38
2022-12-05T03:30:06.639Z,38.58
2022-12-05T03:31:42.389Z,40.10
2022-12-05T03:33:05.333Z,38.78
2022-12-05T03:34:36.055Z,38.53
2022-12-05T03:36:01.580Z,37.53
2022-12-05T03:37:27.363Z,38.13
2022-12-05T03:38:52.183Z,38.15
2022-12-05T03:40:22.127Z,38.55
2022-12-05T03:41:48.984Z,37.55
2022-12-05T03:43:13.870Z,38.13
2022-12-05T03:44:38.778Z,38.33
2022-12-05T03:46:04.490Z,37.78
2022-12-05T03:47:31.932Z,38.45
2022-12-05T03:48:55.761Z,39.20
2022-12-05T03:50:26.136Z,37.63
2022-12-05T03:51:52.148Z,36.33
2022-12-05T03:53:20.851Z,39.38
2022-12-05T03:54:45.536Z,38.25
2022-12-05T03:56:10.447Z,37.50
2022-12-05T03:57:34.676Z,36.10
2022-12-05T03:58:59.980Z,38.15
2022-12-05T04:00:22.421Z,37.38
2022-12-05T04:01:44.672Z,36.85
2022-12-05T04:03:08.225Z,36.13
2022-12-05T04:04:31.734Z,35.70
2022-12-05T04:05:54.236Z,36.72
2022-12-05T04:07:17.008Z,36.75
2022-12-05T04:08:41.015Z,37.05
2022-12-05T04:10:05.373Z,36.88
2022-12-05T04:11:31.787Z,36.28
2022-12-05T04:12:55.039Z,35.30
2022-12-05T04:14:17.750Z,35.72
2022-12-05T04:15:38.635Z,35.40
2022-12-05T04:17:01.872Z,37.05
2022-12-05T04:18:25.616Z,38.22
2022-12-05T04:19:48.341Z,36.03
2022-12-05T04:21:09.062Z,37.60
2022-12-05T04:22:29.977Z,36.88
2022-12-05T04:23:50.890Z,37.85
2022-12-05T04:25:13.559Z,37.03
2022-12-05T04:26:34.885Z,37.75
2022-12-05T04:28:02.755Z,37.13
2022-12-05T04:29:27.562Z,38.58
2022-12-05T04:30:53.336Z,37.08
2022-12-05T04:32:13.975Z,36.42
2022-12-05T04:33:42.238Z,37.33
2022-12-05T04:35:08.989Z,35.92
2022-12-05T04:36:31.698Z,39.20
2022-12-05T04:37:56.187Z,35.92
2022-12-05T04:39:19.465Z,37.20
2022-12-05T04:40:44.241Z,35.53
2022-12-05T04:42:07.715Z,34.53
2022-12-05T04:43:29.353Z,37.40
2022-12-05T04:44:53.267Z,34.15
2022-12-05T04:46:16.078Z,35.90
2022-12-05T04:47:41.569Z,34.95
2022-12-05T04:49:07.018Z,34.05
2022-12-05T04:50:29.407Z,33.25
2022-12-05T04:51:51.621Z,35.65
2022-12-05T04:53:13.096Z,34.55
2022-12-05T04:54:37.567Z,33.90
2022-12-05T04:55:59.458Z,35.33
2022-12-05T04:57:22.502Z,34.55
2022-12-05T04:58:42.981Z,35.72
2022-12-05T05:00:04.600Z,34.10
2022-12-05T05:01:28.672Z,32.78
2022-12-05T05:02:52.475Z,34.08
2022-12-05T05:04:17.661Z,33.45
2022-12-05T05:05:39.019Z,32.80
2022-12-05T05:06:59.690Z,33.58
2022-12-05T05:08:24.439Z,33.22
2022-12-05T05:09:45.318Z,31.90
2022-12-05T05:11:11.056Z,31.85
2022-12-05T05:12:31.454Z,36.40
2022-12-05T05:13:52.605Z,31.93
2022-12-05T05:15:13.394Z,32.47
2022-12-05T05:16:36.780Z,31.65
2022-12-05T05:17:57.557Z,33.03
2022-12-05T05:19:19.767Z,33.65
2022-12-05T05:20:40.463Z,34.25
2022-12-05T05:22:01.167Z,33.10
2022-12-05T05:23:22.132Z,34.60
2022-12-05T05:24:42.930Z,32.25
2022-12-05T05:26:03.762Z,33.90
2022-12-05T05:27:25.618Z,32.72
2022-12-05T05:28:46.576Z,33.03
2022-12-05T05:30:08.047Z,32.92
2022-12-05T05:31:30.428Z,31.65
2022-12-05T05:32:50.791Z,32.55
2022-12-05T05:34:12.169Z,32.17
2022-12-05T05:35:36.028Z,34.22
2022-12-05T05:36:56.956Z,34.05
2022-12-05T05:38:17.645Z,33.00
2022-12-05T05:39:38.401Z,32.92
2022-12-05T05:40:59.012Z,31.55
2022-12-05T05:42:19.581Z,32.83
2022-12-05T05:43:40.701Z,34.60
2022-12-05T05:45:01.445Z,32.55
2022-12-05T05:46:25.571Z,34.95
2022-12-05T05:47:48.229Z,33.17
2022-12-05T05:49:10.254Z,31.77
2022-12-05T05:50:31.232Z,32.40
2022-12-05T05:51:53.434Z,33.10
2022-12-05T05:53:13.795Z,34.70
2022-12-05T05:54:34.255Z,33.65
2022-12-05T05:55:55.218Z,32.50
2022-12-05T05:57:20.246Z,33.47
2022-12-05T05:58:41.150Z,33.80
2022-12-05T06:00:01.903Z,32.67
2022-12-05T06:01:22.477Z,34.70
2022-12-05T06:02:43.362Z,32.60
2022-12-05T06:04:04.214Z,34.30
2022-12-05T06:05:25.054Z,33.87
2022-12-05T06:06:45.427Z,33.38
2022-12-05T06:08:07.512Z,34.38
2022-12-05T06:09:28.319Z,34.05
2022-12-05T06:10:49.113Z,32.53
2022-12-05T06:12:09.821Z,33.90
2022-12-05T06:13:30.497Z,34.20
2022-12-05T06:14:51.510Z,32.90
2022-12-05T06:16:13.662Z,34.97
2022-12-05T06:17:34.286Z,35.65
2022-12-05T06:18:55.198Z,34.42
2022-12-05T06:20:15.839Z,36.30
2022-12-05T06:21:36.526Z,36.78
2022-12-05T06:22:57.087Z,33.72
2022-12-05T06:24:19.102Z,37.30
2022-12-05T06:25:39.425Z,36.08
2022-12-05T06:27:00.004Z,36.45
2022-12-05T06:28:23.717Z,35.67
2022-12-05T06:29:44.365Z,35.58
2022-12-05T06:31:07.892Z,34.83
2022-12-05T06:32:29.128Z,37.53
2022-12-05T06:33:49.664Z,37.10
2022-12-05T06:35:10.056Z,39.05
2022-12-05T06:36:31.353Z,38.25
2022-12-05T06:37:51.874Z,36.65
2022-12-05T06:39:12.554Z,37.55
2022-12-05T06:40:34.998Z,36.93
2022-12-05T06:41:55.811Z,35.17
2022-12-05T06:43:16.194Z,38.38
2022-12-05T06:44:37.444Z,35.53
2022-12-05T06:45:59.302Z,37.58
2022-12-05T06:47:20.001Z,36.67
2022-12-05T06:48:40.598Z,36.75
2022-12-05T06:50:01.214Z,34.28
2022-12-05T06:51:21.802Z,37.72
2022-12-05T06:52:42.572Z,36.30
2022-12-05T06:54:03.299Z,37.00
2022-12-05T06:55:23.887Z,36.75
2022-12-05T06:56:45.965Z,35.20
2022-12-05T06:58:06.729Z,37.05
2022-12-05T06:59:27.344Z,36.63
2022-12-05T07:00:48.082Z,35.58
2022-12-05T07:02:09.960Z,37.63
2022-12-05T07:04:50.399Z,36.85
2022-12-05T07:06:11.248Z,34.72
2022-12-05T07:07:31.660Z,36.53
2022-12-05T07:08:52.411Z,36.92
2022-12-05T07:10:13.421Z,38.50
2022-12-05T07:11:34.322Z,36.55
2022-12-05T07:12:56.051Z,37.63
2022-12-05T07:14:38.940Z,35.42
2022-12-05T07:15:57.898Z,33.83
2022-12-05T07:17:18.866Z,34.67
2022-12-05T07:18:39.436Z,34.15
2022-12-05T07:20:00.601Z,34.25
2022-12-05T07:21:21.427Z,35.25
2022-12-05T07:22:41.746Z,33.95
2022-12-05T07:24:02.339Z,33.10
2022-12-05T07:25:22.908Z,35.15
2022-12-05T07:26:43.445Z,33.67
2022-12-05T07:28:05.259Z,33.38
2022-12-05T07:29:25.584Z,32.85
2022-12-05T07:30:46.177Z,30.93
2022-12-05T07:32:07.038Z,30.77
2022-12-05T07:33:27.756Z,31.20
2022-12-05T07:34:53.542Z,28.67
2022-12-05T07:36:16.779Z,30.35
2022-12-05T07:37:37.390Z,29.95
2022-12-05T07:38:58.404Z,29.30
2022-12-05T07:41:39.798Z,31.27
2022-12-05T07:43:00.489Z,29.75
2022-12-05T07:44:22.622Z,27.33
2022-12-05T07:45:43.215Z,26.52
2022-12-05T07:47:03.999Z,28.38
2022-12-05T07:48:24.637Z,28.98
2022-12-05T07:49:45.219Z,28.13
2022-12-05T07:51:06.957Z,27.07
2022-12-05T07:53:47.974Z,24.05
2022-12-05T07:55:08.823Z,25.52
2022-12-05T07:56:29.567Z,23.42
2022-12-05T07:57:50.170Z,26.65
2022-12-05T07:59:10.519Z,24.10
2022-12-05T08:00:32.506Z,26.17
2022-12-05T08:01:53.184Z,24.63
2022-12-05T08:03:13.730Z,26.38
2022-12-05T08:04:34.592Z,24.83
2022-12-05T08:05:54.839Z,24.23
2022-12-05T08:07:15.696Z,23.92
2022-12-05T08:08:36.552Z,23.67
2022-12-05T08:09:57.405Z,23.35
2022-12-05T08:11:20.327Z,23.08
2022-12-05T08:12:40.785Z,24.42
2022-12-05T08:14:01.665Z,23.90
2022-12-05T08:15:22.335Z,22.63
2022-12-05T08:16:44.390Z,22.52
2022-12-05T08:18:05.301Z,21.23
2022-12-05T08:19:26.032Z,21.95
2022-12-05T08:20:46.833Z,21.98
2022-12-05T08:22:07.341Z,20.38
2022-12-05T08:23:29.087Z,20.55
2022-12-05T08:24:55.997Z,21.73
2022-12-05T08:26:18.038Z,20.17
2022-12-05T08:27:38.653Z,21.20
2022-12-05T08:29:01.037Z,21.67
2022-12-05T08:30:21.656Z,22.95
2022-12-05T08:31:45.479Z,19.95
2022-12-05T08:33:06.037Z,19.50
2022-12-05T08:34:26.541Z,20.23
2022-12-05T08:35:48.974Z,20.08
2022-12-05T08:37:09.890Z,19.75
2022-12-05T08:38:31.200Z,20.50
2022-12-05T08:39:51.943Z,19.85
2022-12-05T08:41:13.848Z,19.98
2022-12-05T08:42:34.590Z,19.67
2022-12-05T08:43:58.795Z,20.42
2022-12-05T08:45:19.343Z,20.45
2022-12-05T08:46:39.783Z,18.38
2022-12-05T08:48:01.938Z,18.48
2022-12-05T08:49:23.075Z,19.42
2022-12-05T08:50:43.584Z,18.67
2022-12-05T08:52:04.354Z,19.15
2022-12-05T08:53:25.282Z,18.85
2022-12-05T08:54:45.878Z,19.85
2022-12-05T08:56:08.463Z,19.90
2022-12-05T08:57:28.903Z,19.58
2022-12-05T08:58:49.700Z,19.65
2022-12-05T09:00:11.299Z,18.70
2022-12-05T09:01:31.727Z,19.52
2022-12-05T09:02:52.411Z,19.40
2022-12-05T09:04:14.425Z,19.23
2022-12-05T09:05:35.233Z,19.02
2022-12-05T09:06:56.044Z,18.60
2022-12-05T09:08:16.541Z,17.80
2022-12-05T09:09:37.369Z,18.50
2022-12-05T09:10:57.899Z,17.63
2022-12-05T09:12:18.434Z,18.40
2022-12-05T09:13:39.433Z,18.48
2022-12-05T09:15:00.499Z,17.75
2022-12-05T09:16:23.046Z,18.02
2022-12-05T09:17:43.791Z,18.20
2022-12-05T09:19:04.677Z,17.13
2022-12-05T09:20:26.684Z,17.50
2022-12-05T09:21:47.360Z,17.55
2022-12-05T09:23:12.976Z,18.63
2022-12-05T09:24:36.760Z,18.70
2022-12-05T09:25:57.124Z,16.95
2022-12-05T09:27:17.385Z,19.25
2022-12-05T09:28:39.834Z,16.73
2022-12-05T09:30:00.666Z,17.85
2022-12-05T09:31:23.297Z,17.95
2022-12-05T09:32:44.187Z,15.98
2022-12-05T09:34:04.700Z,16.50
2022-12-05T09:35:26.828Z,15.73
2022-12-05T09:36:47.699Z,15.68
2022-12-05T09:38:08.453Z,14.57
2022-12-05T09:39:28.897Z,15.02
2022-12-05T09:40:56.388Z,14.45
2022-12-05T09:42:30.183Z,15.43
2022-12-05T09:43:56.331Z,15.23
2022-12-05T09:45:23.756Z,14.20
2022-12-05T09:46:51.324Z,14.52
2022-12-05T09:48:14.374Z,14.27
2022-12-05T09:49:38.976Z,12.68
2022-12-05T09:51:03.233Z,14.15
2022-12-05T09:52:27.000Z,13.90
2022-12-05T09:53:47.507Z,13.38
2022-12-05T09:55:13.943Z,13.35
2022-12-05T09:56:34.273Z,12.85
2022-12-05T09:57:58.070Z,13.77
2022-12-05T09:59:19.702Z,13.50
2022-12-05T10:00:40.775Z,13.82
2022-12-05T10:02:06.530Z,14.35
2022-12-05T10:03:33.386Z,14.32
2022-12-05T10:05:00.387Z,12.23
2022-12-05T10:06:24.772Z,13.45
2022-12-05T10:07:53.051Z,12.85
2022-12-05T10:09:24.802Z,12.50
2022-12-05T10:10:59.517Z,13.10
2022-12-05T10:12:27.169Z,11.77
2022-12-05T10:13:53.464Z,12.27
2022-12-05T10:15:17.161Z,11.63
2022-12-05T10:16:40.417Z,12.00
2022-12-05T10:18:03.893Z,12.98
2022-12-05T10:19:28.936Z,11.70
2022-12-05T10:20:52.618Z,11.65
2022-12-05T10:22:20.696Z,12.23
2022-12-05T10:23:57.689Z,12.48
2022-12-05T10:25:20.547Z,12.35
2022-12-05T10:26:44.465Z,12.00
2022-12-05T10:28:11.676Z,13.43
2022-12-05T10:29:35.647Z,12.18
2022-12-05T10:30:57.166Z,12.60
2022-12-05T10:32:20.396Z,12.73
2022-12-05T10:33:44.865Z,12.13
2022-12-05T10:35:16.244Z,13.07
2022-12-05T10:36:36.604Z,11.82
2022-12-05T10:38:00.183Z,12.20
2022-12-05T10:39:20.849Z,12.23
2022-12-05T10:40:43.204Z,11.68
2022-12-05T10:42:04.185Z,12.20
2022-12-05T10:43:26.737Z,12.15
2022-12-05T10:44:48.719Z,12.43
2022-12-05T10:46:14.119Z,14.30
2022-12-05T10:47:37.291Z,13.48
2022-12-05T10:48:58.430Z,12.30
2022-12-05T10:50:29.022Z,12.55
2022-12-05T10:51:50.092Z,13.70
2022-12-05T10:53:15.933Z,13.23
2022-12-05T10:54:42.475Z,12.15
2022-12-05T10:57:49.646Z,12.88
2022-12-05T10:59:13.177Z,13.35
2022-12-05T11:00:34.290Z,13.73
2022-12-05T11:01:57.210Z,13.55
2022-12-05T11:03:26.784Z,12.40
2022-12-05T11:04:47.352Z,11.75
2022-12-05T11:06:16.559Z,12.13
2022-12-05T11:07:46.369Z,12.45
2022-12-05T11:09:19.825Z,12.27
2022-12-05T11:10:40.179Z,13.32
2022-12-05T11:12:04.486Z,11.90
2022-12-05T11:13:26.193Z,11.15
2022-12-05T11:15:01.988Z,12.20
2022-12-05T11:16:25.711Z,11.43
2022-12-05T11:17:46.614Z,11.88
2022-12-05T11:19:26.940Z,12.00
2022-12-05T11:20:47.571Z,12.65
2022-12-05T11:22:17.132Z,11.55
2022-12-05T11:23:37.945Z,11.15
2022-12-05T11:25:00.015Z,9.93
2022-12-05T11:26:35.317Z,11.40
2022-12-05T11:28:01.610Z,11.00
2022-12-05T11:29:33.930Z,12.32
2022-12-05T11:30:57.746Z,12.23
2022-12-05T11:32:19.683Z,11.20
2022-12-05T11:33:41.025Z,11.68
2022-12-05T11:35:08.845Z,11.13
2022-12-05T11:36:36.732Z,10.70
2022-12-05T11:38:00.494Z,10.63
2022-12-05T11:39:21.160Z,10.52
2022-12-05T11:40:49.940Z,10.63
2022-12-05T11:42:22.090Z,10.43
2022-12-05T11:43:53.500Z,11.00
2022-12-05T11:45:37.731Z,11.40
2022-12-05T11:47:07.623Z,10.38
2022-12-05T11:48:59.147Z,9.95
2022-12-05T11:50:28.753Z,10.77
2022-12-05T11:51:55.808Z,9.27
2022-12-05T11:53:30.575Z,10.15
2022-12-05T11:55:05.975Z,10.63
2022-12-05T11:56:36.419Z,10.38
2022-12-05T11:58:28.835Z,10.45
2022-12-05T12:01:34.612Z,11.88
2022-12-05T12:03:33.965Z,9.93
2022-12-05T12:04:58.101Z,10.43
2022-12-05T12:06:25.567Z,10.75
2022-12-05T12:07:56.720Z,10.55
2022-12-05T12:09:29.972Z,10.88
2022-12-05T12:10:57.444Z,10.80
2022-12-05T12:12:25.275Z,9.98
2022-12-05T12:13:58.260Z,10.00
2022-12-05T12:15:38.916Z,10.07
2022-12-05T12:17:06.373Z,11.10
2022-12-05T12:19:02.484Z,10.82
2022-12-05T12:20:32.969Z,9.70
2022-12-05T12:22:09.427Z,9.70
2022-12-05T12:23:42.787Z,9.32
2022-12-05T12:25:13.474Z,9.77
2022-12-05T12:26:43.329Z,9.13
2022-12-05T12:28:17.405Z,9.18
2022-12-05T12:29:49.423Z,9.48
2022-12-05T12:31:24.911Z,9.57
2022-12-05T12:32:58.364Z,9.57
2022-12-05T12:34:34.833Z,9.60
2022-12-05T12:35:58.918Z,10.25
2022-12-05T12:37:28.047Z,9.98
2022-12-05T12:39:00.830Z,10.38
2022-12-05T12:40:23.183Z,8.75
2022-12-05T12:41:59.837Z,9.80
2022-12-05T12:45:30.190Z,9.40
2022-12-05T12:46:55.367Z,9.23
2022-12-05T12:48:28.188Z,8.57
2022-12-05T12:49:58.179Z,9.65
2022-12-05T12:51:19.099Z,9.52
2022-12-05T12:53:03.972Z,9.95
2022-12-05T12:55:02.047Z,10.77
2022-12-05T12:56:22.974Z,10.38
2022-12-05T12:57:56.245Z,10.45
2022-12-05T12:59:35.781Z,10.98
2022-12-05T13:01:01.742Z,10.57
2022-12-05T13:02:27.203Z,10.65
2022-12-05T13:03:51.843Z,11.05
2022-12-05T13:05:22.769Z,11.38
2022-12-05T13:06:46.643Z,10.88
2022-12-05T13:08:13.940Z,12.10
2022-12-05T13:09:37.717Z,10.52
2022-12-05T13:10:59.788Z,11.55
2022-12-05T13:12:23.848Z,10.65
2022-12-05T13:13:46.693Z,11.43
2022-12-05T13:15:14.111Z,11.35
2022-12-05T13:16:42.532Z,9.68
2022-12-05T13:18:05.853Z,10.93
2022-12-05T13:19:29.319Z,10.18
2022-12-05T13:20:51.909Z,10.88
2022-12-05T13:22:12.964Z,10.25
2022-12-05T13:23:36.663Z,9.80
2022-12-05T13:24:57.686Z,11.25
2022-12-05T13:26:18.892Z,10.55
2022-12-05T13:27:39.359Z,11.27
2022-12-05T13:29:01.966Z,11.65
2022-12-05T13:30:24.231Z,10.18
2022-12-05T13:31:45.917Z,10.48
2022-12-05T13:33:09.504Z,11.38
2022-12-05T13:34:48.090Z,10.98
2022-12-05T13:36:15.653Z,11.02
2022-12-05T13:37:45.828Z,9.90
2022-12-05T13:39:13.087Z,10.35
2022-12-05T13:40:35.585Z,10.40
2022-12-05T13:41:59.599Z,11.07
2022-12-05T13:43:23.220Z,11.48
2022-12-05T13:44:49.419Z,11.60
2022-12-05T13:46:12.501Z,11.93
2022-12-05T13:47:35.293Z,11.52
2022-12-05T13:49:05.116Z,11.55
2022-12-05T13:50:31.602Z,12.30
2022-12-05T13:51:52.009Z,10.30
2022-12-05T13:53:28.677Z,11.30
2022-12-05T13:54:56.019Z,10.82
2022-12-05T13:56:29.447Z,11.77
2022-12-05T13:57:54.385Z,12.07
2022-12-05T13:59:48.391Z,11.35
2022-12-05T14:01:49.131Z,11.68
2022-12-05T14:03:16.997Z,11.90
2022-12-05T14:04:47.436Z,11.23
2022-12-05T14:06:07.742Z,11.57
2022-12-05T14:07:45.157Z,11.88
2022-12-05T14:09:28.288Z,11.95
2022-12-05T14:11:10.655Z,11.85
2022-12-05T14:14:04.331Z,11.23
2022-12-05T14:15:33.994Z,10.45
2022-12-05T14:16:59.099Z,12.60
2022-12-05T14:18:24.777Z,12.02
2022-12-05T14:19:57.564Z,12.48
2022-12-05T14:21:21.761Z,12.60
2022-12-05T14:23:11.259Z,12.23
2022-12-05T14:24:35.231Z,12.57
2022-12-05T14:26:08.993Z,11.02
2022-12-05T14:27:42.121Z,12.48
2022-12-05T14:29:41.713Z,12.27
2022-12-05T14:31:15.464Z,11.20
2022-12-05T14:32:39.307Z,11.50
2022-12-05T14:34:13.286Z,12.10
2022-12-05T14:35:41.633Z,11.20
2022-12-05T14:37:03.959Z,11.90
2022-12-05T14:38:28.422Z,11.15
2022-12-05T14:39:51.318Z,13.82
2022-12-05T14:41:14.274Z,12.00
2022-12-05T14:42:37.343Z,11.60
2022-12-05T14:43:58.053Z,11.80
2022-12-05T14:45:28.299Z,11.00
2022-12-05T14:46:48.744Z,10.77
2022-12-05T14:48:28.168Z,11.85
2022-12-05T14:50:08.027Z,11.15
2022-12-05T14:51:55.910Z,11.95
2022-12-05T14:53:36.812Z,10.27
2022-12-05T14:55:04.037Z,10.80
2022-12-05T14:56:26.247Z,11.70
2022-12-05T14:57:48.797Z,10.48
2022-12-05T14:59:23.988Z,11.35
2022-12-05T15:00:48.187Z,9.93
2022-12-05T15:02:16.791Z,9.70
2022-12-05T15:03:40.656Z,10.02
2022-12-05T15:05:04.292Z,9.10
2022-12-05T15:06:26.872Z,8.85
2022-12-05T15:07:47.802Z,8.68
2022-12-05T15:09:35.985Z,8.73
2022-12-05T15:10:52.097Z,8.93
2022-12-05T15:12:16.138Z,8.50
2022-12-05T15:13:36.604Z,8.52
2022-12-05T15:15:03.961Z,7.97
2022-12-05T15:16:25.151Z,8.02
2022-12-05T15:17:48.342Z,8.68
2022-12-05T15:19:17.166Z,8.57
2022-12-05T15:20:42.735Z,8.00
2022-12-05T15:22:06.861Z,7.65
2022-12-05T15:23:41.170Z,8.07
2022-12-05T15:25:25.617Z,8.10
2022-12-05T15:26:48.452Z,7.85
2022-12-05T15:28:19.148Z,7.72
2022-12-05T15:29:40.340Z,7.55
2022-12-05T15:31:00.889Z,8.05
2022-12-05T15:32:24.822Z,7.97
2022-12-05T15:33:50.920Z,8.57
2022-12-05T15:35:13.200Z,8.52
2022-12-05T15:36:36.180Z,9.38
2022-12-05T15:37:58.762Z,9.82
2022-12-05T15:39:21.952Z,10.38
2022-12-05T15:40:46.219Z,10.20
2022-12-05T15:42:11.741Z,10.77
2022-12-05T15:43:33.581Z,10.88
2022-12-05T15:44:57.695Z,11.48
2022-12-05T15:46:20.474Z,11.50
2022-12-05T15:47:41.941Z,12.63
2022-12-05T15:49:16.701Z,12.93
2022-12-05T15:50:40.550Z,13.60
2022-12-05T15:52:10.145Z,14.15
2022-12-05T15:53:32.325Z,15.10
2022-12-05T15:54:53.427Z,13.52
2022-12-05T15:56:15.976Z,14.07
2022-12-05T15:57:41.405Z,16.98
2022-12-05T15:59:04.604Z,15.63
2022-12-05T16:00:25.756Z,16.27
2022-12-05T16:01:49.448Z,17.05
2022-12-05T16:03:13.382Z,17.70
2022-12-05T16:04:36.949Z,17.52
2022-12-05T16:06:04.001Z,17.77
2022-12-05T16:07:26.152Z,18.23
2022-12-05T16:08:47.404Z,18.35
2022-12-05T16:10:13.528Z,19.90
2022-12-05T16:11:34.134Z,19.80
2022-12-05T16:12:54.675Z,20.65
2022-12-05T16:14:30.961Z,19.38
2022-12-05T16:15:56.084Z,19.80
2022-12-05T16:17:17.328Z,17.73
2022-12-05T16:18:37.787Z,17.15
2022-12-05T16:20:11.336Z,14.70
2022-12-05T16:21:38.559Z,14.88
2022-12-05T16:23:01.804Z,13.00
2022-12-05T16:24:27.378Z,12.18
2022-12-05T16:25:47.617Z,11.50
2022-12-05T16:27:14.770Z,12.50
2022-12-05T16:28:35.173Z,10.93
2022-12-05T16:30:17.985Z,11.05
2022-12-05T16:31:45.233Z,10.45
2022-12-05T16:33:07.412Z,9.98
2022-12-05T16:34:29.892Z,10.13
2022-12-05T16:35:50.792Z,10.10
2022-12-05T16:37:22.775Z,10.77
2022-12-05T16:38:43.536Z,9.98
2022-12-05T16:40:04.941Z,9.43
2022-12-05T16:41:33.138Z,9.68
2022-12-05T16:43:01.515Z,9.35
2022-12-05T16:44:59.014Z,8.25
2022-12-05T16:46:41.478Z,8.55
2022-12-05T16:48:02.170Z,9.05
2022-12-05T16:49:32.175Z,9.50
2022-12-05T16:50:53.607Z,10.50
2022-12-05T16:52:14.820Z,10.98
2022-12-05T16:53:36.805Z,11.30
2022-12-05T16:54:57.418Z,10.57
2022-12-05T16:56:20.524Z,10.50
2022-12-05T16:57:41.159Z,12.13
2022-12-05T16:59:02.833Z,11.02
2022-12-05T17:00:23.115Z,10.88
2022-12-05T17:01:43.763Z,10.57
2022-12-05T17:03:32.244Z,10.63
2022-12-05T17:04:45.451Z,12.57
2022-12-05T17:06:06.341Z,13.13
2022-12-05T17:07:29.735Z,15.00
2022-12-05T17:08:55.671Z,12.00
2022-12-05T17:10:16.452Z,12.20
2022-12-05T17:11:38.141Z,13.05
2022-12-05T17:12:58.827Z,13.15
2022-12-05T17:14:19.774Z,12.95
2022-12-05T17:15:40.139Z,12.77
2022-12-05T17:17:03.355Z,12.95
2022-12-05T17:18:29.563Z,11.02
2022-12-05T17:19:51.931Z,11.50
2022-12-05T17:21:14.194Z,13.38
2022-12-05T17:22:34.843Z,13.35
2022-12-05T17:23:57.539Z,14.13
2022-12-05T17:25:23.126Z,13.70
2022-12-05T17:26:44.768Z,12.45
2022-12-05T17:28:05.330Z,13.02
2022-12-05T17:29:27.990Z,12.03
2022-12-05T17:30:51.698Z,13.13
2022-12-05T17:32:12.606Z,13.10
2022-12-05T17:33:35.300Z,12.50
2022-12-05T17:34:56.026Z,12.82
2022-12-05T17:36:16.872Z,12.18
2022-12-05T17:37:37.280Z,13.07
2022-12-05T17:38:58.970Z,10.82
2022-12-05T17:40:19.736Z,11.95
2022-12-05T17:41:40.295Z,15.25
2022-12-05T17:43:00.772Z,12.20
2022-12-05T17:44:21.324Z,10.63
2022-12-05T17:45:42.453Z,11.48
2022-12-05T17:47:07.680Z,11.65
2022-12-05T17:48:28.790Z,11.32
2022-12-05T17:49:49.220Z,11.93
2022-12-05T17:51:09.801Z,12.70
2022-12-05T17:52:30.476Z,11.35
2022-12-05T17:53:51.433Z,13.35
2022-12-05T17:55:29.015Z,12.25
2022-12-05T17:56:49.964Z,15.75
2022-12-05T17:58:10.946Z,14.65
2022-12-05T17:59:31.745Z,11.38
2022-12-05T18:00:52.802Z,11.20
2022-12-05T18:02:13.655Z,12.93
2022-12-05T18:03:34.601Z,13.02
2022-12-05T18:04:55.848Z,13.05
2022-12-05T18:07:37.771Z,12.35
2022-12-05T18:08:58.263Z,12.02
2022-12-05T18:10:22.150Z,13.13
2022-12-05T18:11:43.033Z,18.75
2022-12-05T18:13:03.937Z,24.38
2022-12-05T18:14:28.300Z,18.15
2022-12-05T18:16:05.867Z,18.20
2022-12-05T18:17:37.926Z,18.10
2022-12-05T18:18:59.257Z,17.60
2022-12-05T18:20:24.344Z,15.90
2022-12-05T18:21:55.617Z,16.65
2022-12-05T18:23:17.343Z,14.07
2022-12-05T18:24:37.943Z,13.00
2022-12-05T18:26:06.234Z,12.40
2022-12-05T18:27:30.326Z,15.18
2022-12-05T18:28:55.189Z,15.10
2022-12-05T18:30:15.989Z,14.77